createdAt,value
2017-07-06T05:31:25.984Z,115
2017-07-06T05:31:51.480Z,115
2017-07-06T05:32:16.970Z,115
2017-07-06T05:32:42.457Z,115
2017-07-06T05:33:07.951Z,115
2017-07-06T05:33:33.427Z,115
2017-07-06T05:33:58.923Z,115
2017-07-06T05:34:24.383Z,115
2017-07-06T05:34:49.875Z,120
2017-07-06T05:35:15.315Z,120
2017-07-06T05:35:40.808Z,120
2017-07-06T05:36:06.283Z,120
2017-07-06T05:36:31.706Z,120
2017-07-06T05:36:57.175Z,120
2017-07-06T05:37:22.648Z,120
2017-07-06T05:37:48.123Z,120
2017-07-06T05:38:13.568Z,120
2017-07-06T05:38:39.002Z,120
2017-07-06T05:39:04.463Z,120
2017-07-06T05:39:29.974Z,120
2017-07-06T05:39:55.455Z,125
2017-07-06T05:40:20.929Z,125
2017-07-06T05:40:46.360Z,125
2017-07-06T05:41:11.829Z,125
2017-07-06T05:41:37.297Z,125
2017-07-06T05:42:02.751Z,125
2017-07-06T05:42:28.221Z,125
2017-07-06T05:42:53.682Z,125
2017-07-06T05:43:19.136Z,125
2017-07-06T05:43:44.622Z,125
2017-07-06T05:44:10.046Z,125
2017-07-06T05:44:35.536Z,125
2017-07-06T05:45:00.996Z,125
2017-07-06T05:45:26.469Z,125
2017-07-06T05:45:51.921Z,130
2017-07-06T05:46:17.389Z,130
2017-07-06T05:46:42.835Z,130
2017-07-06T05:47:08.394Z,130
2017-07-06T05:47:33.804Z,125
2017-07-06T05:47:59.312Z,130
2017-07-06T05:48:24.778Z,120
2017-07-06T05:48:50.272Z,120
2017-07-06T05:49:15.738Z,120
2017-07-06T05:49:41.212Z,125
2017-07-06T05:50:06.699Z,120
2017-07-06T05:50:32.161Z,120
2017-07-06T05:50:57.625Z,125
2017-07-06T05:51:23.113Z,125
2017-07-06T05:51:48.617Z,125
2017-07-06T05:52:14.081Z,125
2017-07-06T05:52:39.548Z,125
2017-07-06T05:53:05.113Z,130
2017-07-06T05:53:30.622Z,130
2017-07-06T05:53:56.103Z,130
2017-07-06T05:54:21.577Z,135
2017-07-06T05:54:47.025Z,135
2017-07-06T05:55:12.510Z,135
2017-07-06T05:55:37.956Z,135
2017-07-06T05:56:03.432Z,135
2017-07-06T05:56:28.942Z,135
2017-07-06T05:56:54.437Z,140
2017-07-06T05:57:19.938Z,140
2017-07-06T05:57:45.407Z,140
2017-07-06T05:58:10.855Z,140
2017-07-06T05:58:36.315Z,140
2017-07-06T05:59:01.820Z,140
2017-07-06T05:59:27.232Z,140
2017-07-06T05:59:52.730Z,140
2017-07-06T06:00:18.187Z,140
2017-07-06T06:00:43.702Z,140
2017-07-06T06:01:09.209Z,145
2017-07-06T06:01:34.686Z,140
2017-07-06T06:02:00.057Z,140
2017-07-06T06:02:25.498Z,140
2017-07-06T06:02:50.975Z,140
2017-07-06T06:03:16.439Z,140
2017-07-06T06:03:41.914Z,140
2017-07-06T06:04:07.369Z,140
2017-07-06T06:04:32.838Z,145
2017-07-06T06:04:58.337Z,145
2017-07-06T06:05:23.779Z,145
2017-07-06T06:05:49.292Z,145
2017-07-06T06:06:14.821Z,145
2017-07-06T06:06:40.270Z,145
2017-07-06T06:07:05.716Z,145
2017-07-06T06:07:31.221Z,145
2017-07-06T06:07:56.662Z,145
2017-07-06T06:08:22.142Z,150
2017-07-06T06:08:47.599Z,150
2017-07-06T06:09:13.057Z,145
2017-07-06T06:09:38.543Z,145
2017-07-06T06:10:03.987Z,145
2017-07-06T06:10:29.461Z,145
2017-07-06T06:10:54.995Z,145
2017-07-06T06:11:20.476Z,145
2017-07-06T06:11:45.942Z,145
2017-07-06T06:12:11.428Z,145
2017-07-06T06:12:37.000Z,145
2017-07-06T06:13:02.370Z,155
2017-07-06T06:13:27.838Z,155
2017-07-06T06:13:53.357Z,155
2017-07-06T06:14:18.790Z,155
2017-07-06T06:14:44.222Z,155
2017-07-06T06:15:09.679Z,155
2017-07-06T06:15:35.164Z,155
2017-07-06T06:16:00.609Z,155
2017-07-06T06:16:26.085Z,155
2017-07-06T06:16:51.553Z,155
2017-07-06T06:17:17.014Z,155
2017-07-06T06:17:42.457Z,155
2017-07-06T06:18:07.931Z,160
2017-07-06T06:18:33.406Z,160
2017-07-06T06:18:58.872Z,160
2017-07-06T06:19:24.382Z,160
2017-07-06T06:19:49.857Z,160
2017-07-06T06:20:15.300Z,160
2017-07-06T06:20:40.775Z,160
2017-07-06T06:21:06.258Z,160
2017-07-06T06:21:31.745Z,165
2017-07-06T06:21:57.190Z,165
2017-07-06T06:22:22.669Z,165
2017-07-06T06:22:48.143Z,165
2017-07-06T06:23:13.608Z,165
2017-07-06T06:23:39.118Z,165
2017-07-06T06:24:04.561Z,165
2017-07-06T06:24:30.043Z,165
2017-07-06T06:24:55.587Z,165
2017-07-06T06:25:21.063Z,165
2017-07-06T06:25:46.665Z,165
2017-07-06T06:26:12.124Z,165
2017-07-06T06:26:37.572Z,165
2017-07-06T06:27:03.043Z,165
2017-07-06T06:27:28.510Z,165
2017-07-06T06:27:54.005Z,170
2017-07-06T06:28:19.462Z,175
2017-07-06T06:28:44.923Z,170
2017-07-06T06:29:10.394Z,170
2017-07-06T06:29:35.836Z,165
2017-07-06T06:30:01.316Z,170
2017-07-06T06:30:26.810Z,165
2017-07-06T06:30:52.220Z,165
2017-07-06T06:31:17.709Z,165
2017-07-06T06:31:43.142Z,165
2017-07-06T06:32:08.613Z,165
2017-07-06T06:32:34.092Z,165
2017-07-06T06:32:59.561Z,165
2017-07-06T06:33:25.019Z,165
2017-07-06T06:33:50.489Z,165
2017-07-06T06:34:15.960Z,165
2017-07-06T06:34:41.431Z,165
2017-07-06T06:35:06.894Z,165
2017-07-06T06:35:32.353Z,165
2017-07-06T06:35:57.860Z,165
2017-07-06T06:36:23.309Z,165
2017-07-06T06:36:48.750Z,170
2017-07-06T06:37:14.193Z,170
2017-07-06T06:37:39.670Z,170
2017-07-06T06:38:05.136Z,170
2017-07-06T06:38:30.601Z,170
2017-07-06T06:38:56.057Z,170
2017-07-06T06:39:21.561Z,170
2017-07-06T06:39:47.031Z,170
2017-07-06T06:40:12.519Z,170
2017-07-06T06:40:37.981Z,170
2017-07-06T06:41:03.433Z,170
2017-07-06T06:41:28.922Z,170
2017-07-06T06:41:54.382Z,175
2017-07-06T06:42:19.811Z,175
2017-07-06T06:42:45.261Z,175
2017-07-06T06:43:10.734Z,175
2017-07-06T06:43:36.201Z,175
2017-07-06T06:44:01.665Z,175
2017-07-06T06:44:27.123Z,175
2017-07-06T06:44:52.611Z,175
2017-07-06T06:45:18.083Z,175
2017-07-06T06:45:43.542Z,175
2017-07-06T06:46:09.005Z,175
2017-07-06T06:46:34.482Z,175
2017-07-06T06:46:59.976Z,175
2017-07-06T06:47:25.483Z,175
2017-07-06T06:47:50.960Z,175
2017-07-06T06:48:16.393Z,175
2017-07-06T06:48:42.023Z,175
2017-07-06T06:49:07.412Z,175
2017-07-06T06:49:32.877Z,175
2017-07-06T06:49:58.423Z,175
2017-07-06T06:50:23.839Z,175
2017-07-06T06:50:49.332Z,175
2017-07-06T06:51:14.774Z,175
2017-07-06T06:51:40.252Z,175
2017-07-06T06:52:05.720Z,175
2017-07-06T06:52:31.209Z,180
2017-07-06T06:52:56.710Z,180
2017-07-06T06:53:22.114Z,180
2017-07-06T06:53:47.601Z,180
2017-07-06T06:54:13.094Z,180
2017-07-06T06:54:38.534Z,180
2017-07-06T06:55:04.016Z,180
2017-07-06T06:55:29.493Z,180
2017-07-06T06:55:54.940Z,180
2017-07-06T06:56:20.414Z,180
2017-07-06T06:56:45.882Z,180
2017-07-06T06:57:11.411Z,180
2017-07-06T06:57:36.884Z,180
2017-07-06T06:58:02.384Z,180
2017-07-06T06:58:27.821Z,180
2017-07-06T06:58:53.354Z,180
2017-07-06T06:59:18.736Z,180
2017-07-06T06:59:44.197Z,180
2017-07-06T07:00:09.668Z,180
2017-07-06T07:00:35.144Z,180
2017-07-06T07:01:00.588Z,180
2017-07-06T07:01:26.097Z,180
2017-07-06T07:01:51.564Z,180
2017-07-06T07:02:17.005Z,180
2017-07-06T07:02:42.497Z,180
2017-07-06T07:03:07.998Z,175
2017-07-06T07:03:33.463Z,175
2017-07-06T07:03:58.950Z,180
2017-07-06T07:04:24.448Z,180
2017-07-06T07:04:49.867Z,185
2017-07-06T07:05:15.333Z,180
2017-07-06T07:05:40.833Z,180
2017-07-06T07:06:06.272Z,180
2017-07-06T07:06:31.767Z,185
2017-07-06T07:06:57.216Z,185
2017-07-06T07:07:22.681Z,185
2017-07-06T07:07:48.147Z,185
2017-07-06T07:08:13.602Z,185
2017-07-06T07:08:39.068Z,190
2017-07-06T07:09:04.535Z,190
2017-07-06T07:09:30.017Z,190
2017-07-06T07:09:55.528Z,190
2017-07-06T07:10:20.988Z,185
2017-07-06T07:10:46.482Z,185
2017-07-06T07:11:11.936Z,185
2017-07-06T07:11:37.465Z,185
2017-07-06T07:12:02.927Z,185
2017-07-06T07:12:28.404Z,185
2017-07-06T07:12:53.926Z,185
2017-07-06T07:13:19.356Z,185
2017-07-06T07:13:44.826Z,185
2017-07-06T07:14:10.296Z,185
2017-07-06T07:14:35.751Z,185
2017-07-06T07:15:01.283Z,185
2017-07-06T07:15:26.698Z,185
2017-07-06T07:15:52.175Z,185
2017-07-06T07:16:17.632Z,185
2017-07-06T07:16:43.080Z,185
2017-07-06T07:17:08.624Z,185
2017-07-06T07:17:34.068Z,185
2017-07-06T07:17:59.518Z,185
2017-07-06T07:18:24.988Z,185
2017-07-06T07:18:50.467Z,185
2017-07-06T07:19:15.946Z,185
2017-07-06T07:19:41.436Z,185
2017-07-06T07:20:06.870Z,185
2017-07-06T07:20:32.339Z,185
2017-07-06T07:20:57.847Z,185
2017-07-06T07:21:23.275Z,185
2017-07-06T07:21:48.749Z,185
2017-07-06T07:22:14.193Z,185
2017-07-06T07:22:39.685Z,185
2017-07-06T07:23:05.507Z,185
2017-07-06T07:23:31.001Z,185
2017-07-06T07:23:56.389Z,185
2017-07-06T07:24:21.852Z,185
2017-07-06T07:24:47.328Z,185
2017-07-06T07:25:12.850Z,185
2017-07-06T07:25:38.264Z,185
2017-07-06T07:26:03.794Z,185
2017-07-06T07:26:29.247Z,185
2017-07-06T07:26:54.701Z,185
2017-07-06T07:27:20.155Z,185
2017-07-06T07:27:45.615Z,185
2017-07-06T07:28:11.091Z,190
2017-07-06T07:28:36.537Z,185
2017-07-06T07:29:01.976Z,185
2017-07-06T07:29:27.526Z,185
2017-07-06T07:29:52.963Z,185
2017-07-06T07:30:18.424Z,185
2017-07-06T07:30:43.849Z,185
2017-07-06T07:31:09.322Z,180
2017-07-06T07:31:34.803Z,175
2017-07-06T07:32:00.278Z,175
2017-07-06T07:32:25.718Z,170
2017-07-06T07:32:51.179Z,145
2017-07-06T07:33:16.645Z,155
2017-07-06T07:33:42.088Z,180
2017-07-06T07:34:07.534Z,185
2017-07-06T07:34:33.006Z,185
2017-07-06T07:34:58.428Z,180
2017-07-06T07:35:23.869Z,180
2017-07-06T07:35:49.337Z,175
2017-07-06T07:36:14.803Z,175
2017-07-06T07:36:40.286Z,175
2017-07-06T07:37:05.718Z,180
2017-07-06T07:37:31.176Z,180
2017-07-06T07:37:56.641Z,180
2017-07-06T07:38:22.115Z,180
2017-07-06T07:38:47.594Z,180
2017-07-06T07:39:13.074Z,180
2017-07-06T07:39:38.543Z,175
2017-07-06T07:40:03.977Z,175
2017-07-06T07:40:29.486Z,180
2017-07-06T07:40:54.951Z,180
2017-07-06T07:41:20.417Z,180
2017-07-06T07:41:45.886Z,175
2017-07-06T07:42:11.489Z,180
2017-07-06T07:42:37.041Z,175
2017-07-06T07:43:02.520Z,175
2017-07-06T07:43:27.975Z,175
2017-07-06T07:43:53.459Z,175
2017-07-06T07:44:18.943Z,175
2017-07-06T07:44:44.406Z,175
2017-07-06T07:45:09.918Z,170
2017-07-06T07:45:35.394Z,175
2017-07-06T07:46:00.849Z,175
2017-07-06T07:46:26.319Z,170
2017-07-06T07:46:51.786Z,170
2017-07-06T07:47:17.271Z,170
2017-07-06T07:47:42.745Z,175
2017-07-06T07:48:08.226Z,170
2017-07-06T07:48:33.700Z,170
2017-07-06T07:48:59.157Z,170
2017-07-06T07:49:24.605Z,170
2017-07-06T07:49:50.081Z,170
2017-07-06T07:50:15.559Z,170
2017-07-06T07:50:40.987Z,165
2017-07-06T07:51:06.438Z,170
2017-07-06T07:51:31.882Z,170
2017-07-06T07:51:57.365Z,170
2017-07-06T07:52:22.842Z,170
2017-07-06T07:52:48.276Z,170
2017-07-06T07:53:13.709Z,170
2017-07-06T07:53:39.196Z,170
2017-07-06T07:54:04.656Z,170
2017-07-06T07:54:30.137Z,170
2017-07-06T07:54:55.608Z,170
2017-07-06T07:55:21.083Z,170
2017-07-06T07:55:46.560Z,170
2017-07-06T07:56:12.036Z,170
2017-07-06T07:56:37.498Z,170
2017-07-06T07:57:02.976Z,170
2017-07-06T07:57:28.451Z,175
2017-07-06T07:57:53.897Z,170
2017-07-06T07:58:19.383Z,170
2017-07-06T07:58:44.842Z,160
2017-07-06T07:59:10.333Z,160
2017-07-06T07:59:35.820Z,170
2017-07-06T08:00:01.246Z,170
2017-07-06T08:00:26.748Z,165
2017-07-06T08:00:52.214Z,160
2017-07-06T08:01:17.659Z,165
2017-07-06T08:01:43.119Z,160
2017-07-06T08:02:08.614Z,160
2017-07-06T08:02:34.039Z,155
2017-07-06T08:02:59.531Z,160
2017-07-06T08:03:24.994Z,160
2017-07-06T08:03:50.471Z,165
2017-07-06T08:04:15.926Z,170
2017-07-06T08:04:41.396Z,170
2017-07-06T08:05:06.891Z,170
2017-07-06T08:05:32.298Z,175
2017-07-06T08:05:57.819Z,170
2017-07-06T08:06:23.268Z,170
2017-07-06T08:06:48.766Z,170
2017-07-06T08:07:14.199Z,170
2017-07-06T08:07:39.671Z,175
2017-07-06T08:08:05.166Z,175
2017-07-06T08:08:30.623Z,175
2017-07-06T08:08:56.109Z,175
2017-07-06T08:09:21.615Z,175
2017-07-06T08:09:47.093Z,175
2017-07-06T08:10:12.550Z,175
2017-07-06T08:10:38.008Z,175
2017-07-06T08:11:03.480Z,175
2017-07-06T08:11:28.950Z,175
2017-07-06T08:11:54.429Z,175
2017-07-06T08:12:19.928Z,170
2017-07-06T08:12:45.433Z,170
2017-07-06T08:13:10.856Z,170
2017-07-06T08:13:36.343Z,170
2017-07-06T08:14:01.843Z,170
2017-07-06T08:14:27.269Z,175
2017-07-06T08:14:52.739Z,175
2017-07-06T08:15:18.223Z,175
2017-07-06T08:15:43.704Z,175
2017-07-06T08:16:09.154Z,175
2017-07-06T08:16:34.624Z,175
2017-07-06T08:17:00.125Z,175
2017-07-06T08:17:25.614Z,170
2017-07-06T08:17:51.064Z,170
2017-07-06T08:18:16.498Z,170
2017-07-06T08:18:41.953Z,165
2017-07-06T08:19:07.419Z,160
2017-07-06T08:19:32.898Z,155
2017-07-06T08:19:58.387Z,175
2017-07-06T08:20:23.807Z,175
2017-07-06T08:20:49.286Z,175
2017-07-06T08:21:14.764Z,175
2017-07-06T08:21:40.245Z,175
2017-07-06T08:22:05.709Z,175
2017-07-06T08:22:31.160Z,170
2017-07-06T08:22:56.639Z,170
2017-07-06T08:23:22.107Z,170
2017-07-06T08:23:47.579Z,170
2017-07-06T08:24:13.068Z,170
2017-07-06T08:24:38.567Z,170
2017-07-06T08:25:04.036Z,170
2017-07-06T08:25:29.504Z,170
2017-07-06T08:25:54.960Z,170
2017-07-06T08:26:20.441Z,170
2017-07-06T08:26:45.924Z,170
2017-07-06T08:27:11.411Z,170
2017-07-06T08:27:36.879Z,165
2017-07-06T08:28:02.346Z,165
2017-07-06T08:28:27.858Z,165
2017-07-06T08:28:53.336Z,165
2017-07-06T08:29:18.777Z,165
2017-07-06T08:29:44.259Z,170
2017-07-06T08:30:09.732Z,165
2017-07-06T08:30:35.217Z,170
2017-07-06T08:31:00.692Z,170
2017-07-06T08:31:26.168Z,170
2017-07-06T08:31:51.641Z,165
2017-07-06T08:32:17.155Z,165
2017-07-06T08:32:42.600Z,170
2017-07-06T08:33:08.064Z,170
2017-07-06T08:33:33.546Z,170
2017-07-06T08:33:59.010Z,170
2017-07-06T08:34:24.476Z,170
2017-07-06T08:34:49.961Z,165
2017-07-06T08:35:15.442Z,165
2017-07-06T08:35:40.919Z,165
2017-07-06T08:36:06.406Z,165
2017-07-06T08:36:31.899Z,165
2017-07-06T08:36:57.383Z,165
2017-07-06T08:37:22.828Z,165
2017-07-06T08:37:48.303Z,165
2017-07-06T08:38:13.775Z,165
2017-07-06T08:38:39.252Z,165
2017-07-06T08:39:04.723Z,165
2017-07-06T08:39:30.182Z,165
2017-07-06T08:39:55.670Z,160
2017-07-06T08:40:21.149Z,160
2017-07-06T08:40:46.588Z,160
2017-07-06T08:41:12.084Z,160
2017-07-06T08:41:37.553Z,160
2017-07-06T08:42:02.994Z,160
2017-07-06T08:42:28.470Z,160
2017-07-06T08:42:53.954Z,160
2017-07-06T08:43:19.439Z,160
2017-07-06T08:43:44.919Z,160
2017-07-06T08:44:10.409Z,160
2017-07-06T08:44:35.886Z,160
2017-07-06T08:45:01.363Z,160
2017-07-06T08:45:26.837Z,160
2017-07-06T08:45:52.321Z,160
2017-07-06T08:46:17.772Z,160
2017-07-06T08:46:43.300Z,160
2017-07-06T08:47:08.727Z,160
2017-07-06T08:47:34.292Z,160
2017-07-06T08:47:59.744Z,160
2017-07-06T08:48:25.220Z,160
2017-07-06T08:48:50.703Z,160
2017-07-06T08:49:16.185Z,160
2017-07-06T08:49:41.628Z,160
2017-07-06T08:50:07.104Z,160
2017-07-06T08:50:32.552Z,160
2017-07-06T08:50:58.049Z,160
2017-07-06T08:51:23.510Z,160
2017-07-06T08:51:49.005Z,160
2017-07-06T08:52:14.494Z,160
2017-07-06T08:52:39.966Z,160
2017-07-06T08:53:05.407Z,160
2017-07-06T08:53:30.875Z,160
2017-07-06T08:53:56.348Z,160
2017-07-06T08:54:21.809Z,160
2017-07-06T08:54:47.276Z,160
2017-07-06T08:55:12.730Z,160
2017-07-06T08:55:38.181Z,155
2017-07-06T08:56:03.644Z,155
2017-07-06T08:56:29.132Z,155
2017-07-06T08:56:54.584Z,155
2017-07-06T08:57:20.053Z,155
2017-07-06T08:57:45.535Z,160
2017-07-06T08:58:11.003Z,165
2017-07-06T08:58:36.468Z,160
2017-07-06T08:59:01.958Z,155
2017-07-06T08:59:27.443Z,155
2017-07-06T08:59:52.912Z,155
2017-07-06T09:00:18.398Z,155
2017-07-06T09:00:43.867Z,155
2017-07-06T09:01:09.335Z,155
2017-07-06T09:01:34.813Z,160
2017-07-06T09:02:00.294Z,155
2017-07-06T09:02:25.778Z,155
2017-07-06T09:02:51.282Z,155
2017-07-06T09:03:16.724Z,155
2017-07-06T09:03:42.182Z,155
2017-07-06T09:04:07.635Z,155
2017-07-06T09:04:33.110Z,155
2017-07-06T09:04:58.580Z,155
2017-07-06T09:05:24.075Z,155
2017-07-06T09:05:49.534Z,155
2017-07-06T09:06:15.026Z,155
2017-07-06T09:06:40.526Z,155
2017-07-06T09:07:05.992Z,155
2017-07-06T09:07:31.458Z,155
2017-07-06T09:07:56.897Z,155
2017-07-06T09:08:22.387Z,155
2017-07-06T09:08:47.844Z,155
2017-07-06T09:09:13.344Z,155
2017-07-06T09:09:38.785Z,155
2017-07-06T09:10:04.263Z,155
2017-07-06T09:10:29.724Z,155
2017-07-06T09:10:55.231Z,155
2017-07-06T09:11:20.697Z,155
2017-07-06T09:11:46.160Z,155
2017-07-06T09:12:11.634Z,160
2017-07-06T09:12:37.112Z,160
2017-07-06T09:13:02.566Z,160
2017-07-06T09:13:28.043Z,160
2017-07-06T09:13:53.510Z,160
2017-07-06T09:14:18.952Z,160
2017-07-06T09:14:44.429Z,160
2017-07-06T09:15:09.994Z,160
2017-07-06T09:15:35.446Z,160
2017-07-06T09:16:00.923Z,160
2017-07-06T09:16:26.406Z,165
2017-07-06T09:16:51.884Z,170
2017-07-06T09:17:17.345Z,175
2017-07-06T09:17:42.831Z,180
2017-07-06T09:18:08.338Z,180
2017-07-06T09:18:33.819Z,180
2017-07-06T09:18:59.307Z,175
2017-07-06T09:19:24.771Z,175
2017-07-06T09:19:50.242Z,170
2017-07-06T09:20:15.760Z,165
2017-07-06T09:20:41.218Z,160
2017-07-06T09:21:06.756Z,160
2017-07-06T09:21:32.175Z,155
2017-07-06T09:21:57.657Z,155
2017-07-06T09:22:23.099Z,155
2017-07-06T09:22:48.579Z,155
2017-07-06T09:23:14.091Z,155
2017-07-06T09:23:39.518Z,150
2017-07-06T09:24:05.022Z,155
2017-07-06T09:24:30.506Z,155
2017-07-06T09:24:55.963Z,155
2017-07-06T09:25:21.415Z,155
2017-07-06T09:25:46.907Z,155
2017-07-06T09:26:12.412Z,160
2017-07-06T09:26:37.890Z,160
2017-07-06T09:27:03.373Z,160
2017-07-06T09:27:28.849Z,160
2017-07-06T09:27:54.335Z,160
2017-07-06T09:28:19.811Z,155
2017-07-06T09:28:45.263Z,155
2017-07-06T09:29:10.780Z,160
2017-07-06T09:29:36.206Z,155
2017-07-06T09:30:01.657Z,160
2017-07-06T09:30:27.151Z,160
2017-07-06T09:30:52.630Z,160
2017-07-06T09:31:18.098Z,155
2017-07-06T09:31:43.553Z,155
2017-07-06T09:32:09.050Z,155
2017-07-06T09:32:34.523Z,150
2017-07-06T09:33:00.019Z,150
2017-07-06T09:33:25.490Z,150
2017-07-06T09:33:50.976Z,150
2017-07-06T09:34:16.431Z,150
2017-07-06T09:34:41.896Z,150
2017-07-06T09:35:07.369Z,150
2017-07-06T09:35:32.832Z,150
2017-07-06T09:35:58.302Z,150
2017-07-06T09:36:23.778Z,135
2017-07-06T09:36:49.236Z,125
2017-07-06T09:37:14.751Z,125
2017-07-06T09:37:40.191Z,130
2017-07-06T09:38:05.650Z,130
2017-07-06T09:38:31.106Z,130
2017-07-06T09:38:56.578Z,135
2017-07-06T09:39:22.044Z,135
2017-07-06T09:39:47.589Z,130
2017-07-06T09:40:12.969Z,130
2017-07-06T09:40:38.444Z,130
2017-07-06T09:41:03.925Z,125
2017-07-06T09:41:29.408Z,120
2017-07-06T09:41:54.916Z,115
2017-07-06T09:42:20.381Z,135
2017-07-06T09:42:45.893Z,145
2017-07-06T09:43:11.354Z,145
2017-07-06T09:43:36.807Z,150
2017-07-06T09:44:02.271Z,150
2017-07-06T09:44:27.724Z,150
2017-07-06T09:44:53.226Z,145
2017-07-06T09:45:18.684Z,145
2017-07-06T09:45:44.159Z,145
2017-07-06T09:46:09.634Z,145
2017-07-06T09:46:35.103Z,145
2017-07-06T09:47:00.585Z,145
2017-07-06T09:47:26.031Z,145
2017-07-06T09:47:51.511Z,145
2017-07-06T09:48:16.970Z,145
2017-07-06T09:48:42.470Z,145
2017-07-06T09:49:07.939Z,145
2017-07-06T09:49:33.397Z,145
2017-07-06T09:49:58.877Z,145
2017-07-06T09:50:24.343Z,150
2017-07-06T09:50:49.827Z,150
2017-07-06T09:51:15.286Z,150
2017-07-06T09:51:40.771Z,155
2017-07-06T09:52:06.251Z,155
2017-07-06T09:52:31.720Z,155
2017-07-06T09:52:57.178Z,160
2017-07-06T09:53:22.642Z,160
2017-07-06T09:53:48.100Z,170
2017-07-06T09:54:13.580Z,175
2017-07-06T09:54:39.064Z,180
2017-07-06T09:55:04.532Z,180
2017-07-06T09:55:30.002Z,185
2017-07-06T09:55:55.470Z,185
2017-07-06T09:56:20.969Z,180
2017-07-06T09:56:46.447Z,175
2017-07-06T09:57:11.935Z,170
2017-07-06T09:57:37.397Z,170
2017-07-06T09:58:02.857Z,170
2017-07-06T09:58:28.354Z,175
2017-07-06T09:58:53.833Z,175
2017-07-06T09:59:19.375Z,170
2017-07-06T09:59:44.809Z,170
2017-07-06T10:00:10.230Z,170
2017-07-06T10:00:35.727Z,170
2017-07-06T10:01:01.195Z,170
2017-07-06T10:01:26.664Z,175
2017-07-06T10:01:52.122Z,180
2017-07-06T10:02:17.617Z,185
2017-07-06T10:02:43.077Z,195
2017-07-06T10:03:08.539Z,200
2017-07-06T10:03:34.199Z,195
2017-07-06T10:03:59.692Z,195
2017-07-06T10:04:25.173Z,190
2017-07-06T10:04:50.656Z,185
2017-07-06T10:05:16.104Z,185
2017-07-06T10:05:41.577Z,195
2017-07-06T10:06:07.060Z,200
2017-07-06T10:06:32.525Z,195
2017-07-06T10:06:58.019Z,190
2017-07-06T10:07:23.490Z,185
2017-07-06T10:07:48.984Z,175
2017-07-06T10:08:14.454Z,165
2017-07-06T10:08:39.899Z,155
2017-07-06T10:09:05.369Z,150
2017-07-06T10:09:30.871Z,145
2017-07-06T10:09:56.326Z,145
2017-07-06T10:10:21.809Z,145
2017-07-06T10:10:47.230Z,145
2017-07-06T10:11:12.713Z,145
2017-07-06T10:11:38.180Z,145
2017-07-06T10:12:03.649Z,150
2017-07-06T10:12:29.175Z,150
2017-07-06T10:12:54.604Z,150
2017-07-06T10:13:20.058Z,150
2017-07-06T10:13:45.533Z,150
2017-07-06T10:14:11.019Z,145
2017-07-06T10:14:36.509Z,145
2017-07-06T10:15:01.987Z,140
2017-07-06T10:15:27.449Z,140
2017-07-06T10:15:52.926Z,120
2017-07-06T10:16:18.387Z,125
2017-07-06T10:16:43.885Z,135
2017-07-06T10:17:09.380Z,135
2017-07-06T10:17:34.799Z,135
2017-07-06T10:18:00.259Z,140
2017-07-06T10:18:25.714Z,140
2017-07-06T10:18:51.216Z,140
2017-07-06T10:19:16.674Z,140
2017-07-06T10:19:42.113Z,140
2017-07-06T10:20:07.581Z,145
2017-07-06T10:20:33.073Z,145
2017-07-06T10:20:58.522Z,150
2017-07-06T10:21:24.004Z,150
2017-07-06T10:21:49.544Z,150
2017-07-06T10:22:14.964Z,150
2017-07-06T10:22:40.441Z,145
2017-07-06T10:23:05.930Z,145
2017-07-06T10:23:31.392Z,140
2017-07-06T10:23:56.850Z,135
2017-07-06T10:24:22.347Z,135
2017-07-06T10:24:47.792Z,140
2017-07-06T10:25:13.326Z,140
2017-07-06T10:25:38.766Z,140
2017-07-06T10:26:04.241Z,140
2017-07-06T10:26:29.726Z,140
2017-07-06T10:26:55.236Z,140
2017-07-06T10:27:20.702Z,140
2017-07-06T10:27:46.163Z,140
2017-07-06T10:28:11.639Z,140
2017-07-06T10:28:37.115Z,145
2017-07-06T10:29:02.603Z,145
2017-07-06T10:29:28.068Z,140
2017-07-06T10:29:53.538Z,140
2017-07-06T10:30:19.004Z,140
2017-07-06T10:30:44.520Z,145
2017-07-06T10:31:09.979Z,150
2017-07-06T10:31:35.481Z,150
2017-07-06T10:32:00.939Z,150
2017-07-06T10:32:26.391Z,150
2017-07-06T10:32:51.881Z,150
2017-07-06T10:33:17.349Z,140
2017-07-06T10:33:42.834Z,135
2017-07-06T10:34:08.290Z,140
2017-07-06T10:34:33.786Z,140
2017-07-06T10:34:59.239Z,145
2017-07-06T10:35:24.743Z,145
2017-07-06T10:35:50.196Z,145
2017-07-06T10:36:15.691Z,145
2017-07-06T10:36:41.186Z,140
2017-07-06T10:37:06.664Z,135
2017-07-06T10:37:32.146Z,130
2017-07-06T10:37:57.624Z,125
2017-07-06T10:38:23.128Z,120
2017-07-06T10:38:48.568Z,120
2017-07-06T10:39:14.032Z,120
2017-07-06T10:39:39.510Z,115
2017-07-06T10:40:04.965Z,115
2017-07-06T10:40:30.449Z,115
2017-07-06T10:40:55.914Z,115
2017-07-06T10:41:21.382Z,115
2017-07-06T10:41:46.865Z,115
2017-07-06T10:42:12.340Z,115
2017-07-06T10:42:37.810Z,110
2017-07-06T10:43:03.262Z,110
2017-07-06T10:43:28.742Z,115
2017-07-06T10:43:54.191Z,110
2017-07-06T10:44:19.698Z,115
2017-07-06T10:44:45.164Z,115
2017-07-06T10:45:10.645Z,120
2017-07-06T10:45:36.110Z,115
2017-07-06T10:46:01.551Z,120
2017-07-06T10:46:27.042Z,120
2017-07-06T10:46:52.506Z,120
2017-07-06T10:47:17.968Z,120
2017-07-06T10:47:43.424Z,120
2017-07-06T10:48:08.907Z,125
2017-07-06T10:48:34.407Z,125
2017-07-06T10:48:59.879Z,125
2017-07-06T10:49:25.339Z,125
2017-07-06T10:49:50.808Z,125
2017-07-06T10:50:16.283Z,125
2017-07-06T10:50:41.734Z,125
2017-07-06T10:51:07.220Z,125
2017-07-06T10:51:32.675Z,125
2017-07-06T10:51:58.146Z,130
2017-07-06T10:52:23.618Z,130
2017-07-06T10:52:49.074Z,130
2017-07-06T10:53:14.534Z,130
2017-07-06T10:53:40.004Z,130
2017-07-06T10:54:05.471Z,130
2017-07-06T10:54:30.950Z,130
2017-07-06T10:54:56.396Z,125
2017-07-06T10:55:21.904Z,125
2017-07-06T10:55:47.365Z,125
2017-07-06T10:56:12.844Z,125
2017-07-06T10:56:38.317Z,125
2017-07-06T10:57:03.801Z,125
2017-07-06T10:57:29.267Z,125
2017-07-06T10:57:54.727Z,130
2017-07-06T10:58:20.217Z,130
2017-07-06T10:58:45.689Z,135
2017-07-06T10:59:11.159Z,140
2017-07-06T10:59:36.703Z,140
2017-07-06T11:00:02.214Z,135
2017-07-06T11:00:27.655Z,130
2017-07-06T11:00:53.146Z,130
2017-07-06T11:01:18.599Z,125
2017-07-06T11:01:44.120Z,125
2017-07-06T11:02:09.564Z,120
2017-07-06T11:02:35.024Z,120
2017-07-06T11:03:00.510Z,120
2017-07-06T11:03:25.968Z,120
2017-07-06T11:03:51.419Z,120
2017-07-06T11:04:16.888Z,120
2017-07-06T11:04:42.347Z,120
2017-07-06T11:05:07.833Z,120
2017-07-06T11:05:33.319Z,120
2017-07-06T11:05:58.806Z,120
2017-07-06T11:06:24.269Z,120
2017-07-06T11:06:49.766Z,125
2017-07-06T11:07:15.208Z,125
2017-07-06T11:07:40.693Z,125
2017-07-06T11:08:06.175Z,125
2017-07-06T11:08:31.650Z,125
2017-07-06T11:08:57.125Z,125
2017-07-06T11:09:22.573Z,125
2017-07-06T11:09:48.059Z,125
2017-07-06T11:10:13.523Z,125
2017-07-06T11:10:38.963Z,125
2017-07-06T11:11:04.435Z,125
2017-07-06T11:11:29.912Z,125
2017-07-06T11:11:55.379Z,125
2017-07-06T11:12:20.837Z,125
2017-07-06T11:12:46.330Z,120
2017-07-06T11:13:11.819Z,120
2017-07-06T11:13:37.281Z,120
2017-07-06T11:14:02.733Z,120
2017-07-06T11:14:28.223Z,120
2017-07-06T11:14:53.701Z,120
2017-07-06T11:15:19.195Z,120
2017-07-06T11:15:44.623Z,120
2017-07-06T11:16:10.095Z,115
2017-07-06T11:16:35.562Z,115
2017-07-06T11:17:01.095Z,115
2017-07-06T11:17:26.527Z,115
2017-07-06T11:17:52.001Z,115
2017-07-06T11:18:17.466Z,110
2017-07-06T11:18:42.976Z,110
2017-07-06T11:19:08.453Z,110
2017-07-06T11:19:33.976Z,110
2017-07-06T11:19:59.381Z,110
2017-07-06T11:20:24.890Z,110
2017-07-06T11:20:50.352Z,110
2017-07-06T11:21:15.832Z,110
2017-07-06T11:21:41.281Z,110
2017-07-06T11:22:06.735Z,110